sensor_id;sensor_type;location;lat;lon;timestamp;P1;durP1;ratioP1;P2;durP2;ratioP2
75071;SDS011;63651;55.728;38.022;2023-02-14T00:02:29;0.90;;;0.38;;
75071;SDS011;63651;55.728;38.022;2023-02-14T00:07:30;1.20;;;0.40;;
75071;SDS011;63651;55.728;38.022;2023-02-14T00:12:31;1.33;;;0.35;;
75071;SDS011;63651;55.728;38.022;2023-02-14T00:17:32;1.38;;;0.38;;
75071;SDS011;63651;55.728;38.022;2023-02-14T00:22:33;1.02;;;0.57;;
75071;SDS011;63651;55.728;38.022;2023-02-14T00:27:34;1.23;;;0.38;;
75071;SDS011;63651;55.728;38.022;2023-02-14T00:32:36;0.75;;;0.28;;
75071;SDS011;63651;55.728;38.022;2023-02-14T00:37:39;1.50;;;0.40;;
75071;SDS011;63651;55.728;38.022;2023-02-14T00:42:40;0.60;;;0.10;;
75071;SDS011;63651;55.728;38.022;2023-02-14T00:47:41;1.15;;;0.20;;
75071;SDS011;63651;55.728;38.022;2023-02-14T00:52:42;0.85;;;0.13;;
75071;SDS011;63651;55.728;38.022;2023-02-14T00:57:43;0.70;;;0.20;;
75071;SDS011;63651;55.728;38.022;2023-02-14T01:02:44;1.52;;;0.50;;
75071;SDS011;63651;55.728;38.022;2023-02-14T01:07:45;1.55;;;0.20;;
75071;SDS011;63651;55.728;38.022;2023-02-14T01:12:46;1.23;;;0.32;;
75071;SDS011;63651;55.728;38.022;2023-02-14T01:17:47;1.65;;;0.35;;
75071;SDS011;63651;55.728;38.022;2023-02-14T01:22:49;0.90;;;0.40;;
75071;SDS011;63651;55.728;38.022;2023-02-14T01:27:50;1.02;;;0.30;;
75071;SDS011;63651;55.728;38.022;2023-02-14T01:32:51;0.50;;;0.10;;
75071;SDS011;63651;55.728;38.022;2023-02-14T01:37:53;1.02;;;0.20;;
75071;SDS011;63651;55.728;38.022;2023-02-14T01:42:54;0.73;;;0.20;;
75071;SDS011;63651;55.728;38.022;2023-02-14T01:47:56;1.08;;;0.20;;
75071;SDS011;63651;55.728;38.022;2023-02-14T01:53:01;0.45;;;0.20;;
75071;SDS011;63651;55.728;38.022;2023-02-14T01:58:07;1.40;;;0.40;;
75071;SDS011;63651;55.728;38.022;2023-02-14T02:03:11;1.23;;;0.35;;
75071;SDS011;63651;55.728;38.022;2023-02-14T02:08:13;0.40;;;0.17;;
75071;SDS011;63651;55.728;38.022;2023-02-14T02:13:16;0.80;;;0.30;;
75071;SDS011;63651;55.728;38.022;2023-02-14T02:18:32;2.05;;;0.50;;
75071;SDS011;63651;55.728;38.022;2023-02-14T02:40:27;1.58;;;0.50;;
75071;SDS011;63651;55.728;38.022;2023-02-14T02:45:50;1.90;;;0.40;;
75071;SDS011;63651;55.728;38.022;2023-02-14T02:51:17;1.20;;;0.30;;
75071;SDS011;63651;55.728;38.022;2023-02-14T02:56:58;0.65;;;0.30;;
75071;SDS011;63651;55.728;38.022;2023-02-14T03:02:12;1.23;;;0.60;;
75071;SDS011;63651;55.728;38.022;2023-02-14T03:07:28;1.08;;;0.32;;
75071;SDS011;63651;55.728;38.022;2023-02-14T03:12:45;0.90;;;0.30;;
75071;SDS011;63651;55.728;38.022;2023-02-14T03:23:32;1.20;;;0.57;;
75071;SDS011;63651;55.728;38.022;2023-02-14T03:34:14;1.05;;;0.40;;
75071;SDS011;63651;55.728;38.022;2023-02-14T03:39:26;1.38;;;0.35;;
75071;SDS011;63651;55.728;38.022;2023-02-14T03:44:39;2.22;;;0.40;;
75071;SDS011;63651;55.728;38.022;2023-02-14T03:49:43;1.17;;;0.30;;
75071;SDS011;63651;55.728;38.022;2023-02-14T03:54:50;1.63;;;0.50;;
75071;SDS011;63651;55.728;38.022;2023-02-14T03:59:55;1.33;;;0.30;;
75071;SDS011;63651;55.728;38.022;2023-02-14T04:04:56;1.30;;;0.32;;
75071;SDS011;63651;55.728;38.022;2023-02-14T04:10:00;1.05;;;0.47;;
75071;SDS011;63651;55.728;38.022;2023-02-14T04:15:01;1.42;;;0.63;;
75071;SDS011;63651;55.728;38.022;2023-02-14T04:20:02;1.52;;;0.30;;
75071;SDS011;63651;55.728;38.022;2023-02-14T04:25:03;0.98;;;0.30;;
75071;SDS011;63651;55.728;38.022;2023-02-14T04:30:05;0.82;;;0.30;;
75071;SDS011;63651;55.728;38.022;2023-02-14T04:35:07;1.27;;;0.35;;
75071;SDS011;63651;55.728;38.022;2023-02-14T04:40:08;2.80;;;0.60;;
75071;SDS011;63651;55.728;38.022;2023-02-14T04:45:10;1.13;;;0.30;;
75071;SDS011;63651;55.728;38.022;2023-02-14T04:50:11;1.83;;;0.60;;
75071;SDS011;63651;55.728;38.022;2023-02-14T04:55:12;0.70;;;0.30;;
75071;SDS011;63651;55.728;38.022;2023-02-14T05:00:14;2.15;;;0.43;;
75071;SDS011;63651;55.728;38.022;2023-02-14T05:05:15;0.80;;;0.40;;
75071;SDS011;63651;55.728;38.022;2023-02-14T05:10:16;1.77;;;0.28;;
75071;SDS011;63651;55.728;38.022;2023-02-14T05:15:17;2.15;;;0.30;;
75071;SDS011;63651;55.728;38.022;2023-02-14T05:20:18;0.98;;;0.45;;
75071;SDS011;63651;55.728;38.022;2023-02-14T05:25:20;1.95;;;0.50;;
75071;SDS011;63651;55.728;38.022;2023-02-14T05:30:21;0.80;;;0.40;;
75071;SDS011;63651;55.728;38.022;2023-02-14T05:35:26;8.85;;;0.60;;
75071;SDS011;63651;55.728;38.022;2023-02-14T05:40:27;1.23;;;0.30;;
75071;SDS011;63651;55.728;38.022;2023-02-14T05:45:29;1.00;;;0.30;;
75071;SDS011;63651;55.728;38.022;2023-02-14T05:50:30;1.02;;;0.35;;
75071;SDS011;63651;55.728;38.022;2023-02-14T05:55:31;1.42;;;0.60;;
75071;SDS011;63651;55.728;38.022;2023-02-14T06:00:32;1.67;;;0.40;;
75071;SDS011;63651;55.728;38.022;2023-02-14T06:05:34;0.93;;;0.45;;
75071;SDS011;63651;55.728;38.022;2023-02-14T06:10:35;1.10;;;0.32;;
75071;SDS011;63651;55.728;38.022;2023-02-14T06:15:36;1.50;;;0.40;;
75071;SDS011;63651;55.728;38.022;2023-02-14T06:20:37;1.20;;;0.43;;
75071;SDS011;63651;55.728;38.022;2023-02-14T06:25:38;3.08;;;0.52;;
75071;SDS011;63651;55.728;38.022;2023-02-14T06:30:40;0.90;;;0.30;;
75071;SDS011;63651;55.728;38.022;2023-02-14T06:35:41;0.70;;;0.40;;
75071;SDS011;63651;55.728;38.022;2023-02-14T06:40:42;1.60;;;0.50;;
75071;SDS011;63651;55.728;38.022;2023-02-14T06:45:43;1.48;;;0.47;;
75071;SDS011;63651;55.728;38.022;2023-02-14T06:50:46;1.60;;;0.30;;
75071;SDS011;63651;55.728;38.022;2023-02-14T06:55:47;1.70;;;0.60;;
75071;SDS011;63651;55.728;38.022;2023-02-14T07:00:48;1.30;;;0.43;;
75071;SDS011;63651;55.728;38.022;2023-02-14T07:05:50;6.95;;;0.73;;
75071;SDS011;63651;55.728;38.022;2023-02-14T07:10:55;1.15;;;0.40;;
75071;SDS011;63651;55.728;38.022;2023-02-14T07:15:57;2.72;;;0.57;;
75071;SDS011;63651;55.728;38.022;2023-02-14T07:20:58;0.63;;;0.30;;
75071;SDS011;63651;55.728;38.022;2023-02-14T07:25:59;1.00;;;0.73;;
75071;SDS011;63651;55.728;38.022;2023-02-14T07:31:00;1.42;;;0.52;;
75071;SDS011;63651;55.728;38.022;2023-02-14T07:36:07;0.70;;;0.35;;
75071;SDS011;63651;55.728;38.022;2023-02-14T07:41:09;1.80;;;0.30;;
75071;SDS011;63651;55.728;38.022;2023-02-14T07:46:10;2.10;;;0.63;;
75071;SDS011;63651;55.728;38.022;2023-02-14T07:51:11;1.48;;;0.35;;
75071;SDS011;63651;55.728;38.022;2023-02-14T07:56:12;1.02;;;0.32;;
75071;SDS011;63651;55.728;38.022;2023-02-14T08:01:14;0.80;;;0.40;;
75071;SDS011;63651;55.728;38.022;2023-02-14T08:06:16;1.27;;;0.40;;
75071;SDS011;63651;55.728;38.022;2023-02-14T08:11:18;1.17;;;0.35;;
75071;SDS011;63651;55.728;38.022;2023-02-14T08:16:38;1.40;;;0.60;;
75071;SDS011;63651;55.728;38.022;2023-02-14T08:21:39;1.17;;;0.30;;
75071;SDS011;63651;55.728;38.022;2023-02-14T08:26:40;2.85;;;0.52;;
75071;SDS011;63651;55.728;38.022;2023-02-14T08:31:42;2.08;;;0.57;;
75071;SDS011;63651;55.728;38.022;2023-02-14T08:36:43;2.30;;;0.60;;
75071;SDS011;63651;55.728;38.022;2023-02-14T08:41:44;2.22;;;0.88;;
75071;SDS011;63651;55.728;38.022;2023-02-14T08:46:45;2.22;;;0.50;;
75071;SDS011;63651;55.728;38.022;2023-02-14T08:51:46;1.65;;;0.60;;
75071;SDS011;63651;55.728;38.022;2023-02-14T08:56:47;1.05;;;0.73;;
75071;SDS011;63651;55.728;38.022;2023-02-14T09:01:48;2.35;;;0.65;;
75071;SDS011;63651;55.728;38.022;2023-02-14T09:06:49;3.45;;;1.05;;
75071;SDS011;63651;55.728;38.022;2023-02-14T09:11:50;2.95;;;1.00;;
75071;SDS011;63651;55.728;38.022;2023-02-14T09:16:51;2.97;;;0.80;;
75071;SDS011;63651;55.728;38.022;2023-02-14T09:21:52;4.40;;;1.10;;
75071;SDS011;63651;55.728;38.022;2023-02-14T09:26:54;2.83;;;0.93;;
75071;SDS011;63651;55.728;38.022;2023-02-14T09:31:57;3.08;;;1.40;;
75071;SDS011;63651;55.728;38.022;2023-02-14T09:37:00;1.65;;;0.85;;
75071;SDS011;63651;55.728;38.022;2023-02-14T09:58:18;3.67;;;0.70;;
75071;SDS011;63651;55.728;38.022;2023-02-14T10:03:37;1.80;;;0.45;;
75071;SDS011;63651;55.728;38.022;2023-02-14T10:08:58;1.27;;;0.60;;
75071;SDS011;63651;55.728;38.022;2023-02-14T10:14:16;2.20;;;0.75;;
75071;SDS011;63651;55.728;38.022;2023-02-14T10:29:36;2.15;;;0.85;;
75071;SDS011;63651;55.728;38.022;2023-02-14T11:00:53;1.25;;;0.47;;
75071;SDS011;63651;55.728;38.022;2023-02-14T11:06:00;1.88;;;0.60;;
75071;SDS011;63651;55.728;38.022;2023-02-14T11:16:31;1.08;;;0.45;;
75071;SDS011;63651;55.728;38.022;2023-02-14T11:21:37;1.48;;;0.63;;
75071;SDS011;63651;55.728;38.022;2023-02-14T11:26:39;1.45;;;0.68;;
75071;SDS011;63651;55.728;38.022;2023-02-14T11:31:49;1.75;;;0.50;;
75071;SDS011;63651;55.728;38.022;2023-02-14T11:36:50;1.75;;;0.80;;
75071;SDS011;63651;55.728;38.022;2023-02-14T11:41:52;1.20;;;0.50;;
75071;SDS011;63651;55.728;38.022;2023-02-14T11:46:56;1.08;;;0.52;;
75071;SDS011;63651;55.728;38.022;2023-02-14T11:52:17;1.27;;;0.57;;
75071;SDS011;63651;55.728;38.022;2023-02-14T11:57:26;1.48;;;0.73;;
75071;SDS011;63651;55.728;38.022;2023-02-14T12:02:38;1.10;;;0.50;;
75071;SDS011;63651;55.728;38.022;2023-02-14T12:07:44;1.13;;;0.70;;
75071;SDS011;63651;55.728;38.022;2023-02-14T12:13:32;1.13;;;0.57;;
75071;SDS011;63651;55.728;38.022;2023-02-14T12:24:22;2.00;;;0.68;;
75071;SDS011;63651;55.728;38.022;2023-02-14T12:29:23;1.48;;;0.63;;
75071;SDS011;63651;55.728;38.022;2023-02-14T12:34:36;0.70;;;0.40;;
75071;SDS011;63651;55.728;38.022;2023-02-14T12:45:18;1.08;;;0.60;;
75071;SDS011;63651;55.728;38.022;2023-02-14T13:16:22;2.53;;;0.60;;
75071;SDS011;63651;55.728;38.022;2023-02-14T13:21:51;1.17;;;0.70;;
75071;SDS011;63651;55.728;38.022;2023-02-14T13:26:59;1.52;;;0.47;;
75071;SDS011;63651;55.728;38.022;2023-02-14T13:32:02;1.50;;;0.50;;
75071;SDS011;63651;55.728;38.022;2023-02-14T13:37:05;1.27;;;0.43;;
75071;SDS011;63651;55.728;38.022;2023-02-14T13:42:10;1.88;;;1.05;;
75071;SDS011;63651;55.728;38.022;2023-02-14T13:47:16;1.13;;;0.43;;
75071;SDS011;63651;55.728;38.022;2023-02-14T13:52:41;1.88;;;0.60;;
75071;SDS011;63651;55.728;38.022;2023-02-14T13:57:58;1.60;;;0.57;;
75071;SDS011;63651;55.728;38.022;2023-02-14T14:03:11;2.85;;;0.85;;
75071;SDS011;63651;55.728;38.022;2023-02-14T14:18:42;2.05;;;0.38;;
75071;SDS011;63651;55.728;38.022;2023-02-14T14:23:43;2.05;;;0.50;;
75071;SDS011;63651;55.728;38.022;2023-02-14T14:28:44;0.63;;;0.32;;
75071;SDS011;63651;55.728;38.022;2023-02-14T14:33:52;2.03;;;0.60;;
75071;SDS011;63651;55.728;38.022;2023-02-14T14:38:58;2.65;;;0.63;;
75071;SDS011;63651;55.728;38.022;2023-02-14T14:43:59;1.17;;;0.45;;
75071;SDS011;63651;55.728;38.022;2023-02-14T14:49:01;1.02;;;0.60;;
75071;SDS011;63651;55.728;38.022;2023-02-14T14:59:16;1.70;;;0.60;;
75071;SDS011;63651;55.728;38.022;2023-02-14T15:09:30;1.48;;;0.63;;
75071;SDS011;63651;55.728;38.022;2023-02-14T15:14:34;1.40;;;0.70;;
75071;SDS011;63651;55.728;38.022;2023-02-14T15:19:42;1.38;;;0.60;;
75071;SDS011;63651;55.728;38.022;2023-02-14T15:24:46;1.13;;;0.43;;
75071;SDS011;63651;55.728;38.022;2023-02-14T15:29:58;1.50;;;0.40;;
75071;SDS011;63651;55.728;38.022;2023-02-14T15:35:02;1.30;;;0.65;;
75071;SDS011;63651;55.728;38.022;2023-02-14T15:40:07;0.70;;;0.30;;
75071;SDS011;63651;55.728;38.022;2023-02-14T15:50:24;1.33;;;0.73;;
75071;SDS011;63651;55.728;38.022;2023-02-14T15:55:27;1.20;;;0.75;;
75071;SDS011;63651;55.728;38.022;2023-02-14T16:00:30;2.17;;;0.55;;
75071;SDS011;63651;55.728;38.022;2023-02-14T16:05:32;1.20;;;0.60;;
75071;SDS011;63651;55.728;38.022;2023-02-14T16:10:35;1.45;;;0.47;;
75071;SDS011;63651;55.728;38.022;2023-02-14T16:15:38;1.52;;;0.50;;
75071;SDS011;63651;55.728;38.022;2023-02-14T16:20:55;1.73;;;0.57;;
75071;SDS011;63651;55.728;38.022;2023-02-14T16:26:08;1.25;;;0.73;;
75071;SDS011;63651;55.728;38.022;2023-02-14T16:31:11;1.30;;;0.80;;
75071;SDS011;63651;55.728;38.022;2023-02-14T16:41:23;5.80;;;0.85;;
75071;SDS011;63651;55.728;38.022;2023-02-14T16:46:27;3.42;;;0.70;;
75071;SDS011;63651;55.728;38.022;2023-02-14T16:51:30;4.32;;;0.60;;
75071;SDS011;63651;55.728;38.022;2023-02-14T16:56:51;3.67;;;0.65;;
75071;SDS011;63651;55.728;38.022;2023-02-14T17:01:56;3.95;;;0.77;;
75071;SDS011;63651;55.728;38.022;2023-02-14T17:06:57;2.17;;;0.63;;
75071;SDS011;63651;55.728;38.022;2023-02-14T17:12:06;1.63;;;0.60;;
75071;SDS011;63651;55.728;38.022;2023-02-14T17:17:15;2.25;;;0.55;;
75071;SDS011;63651;55.728;38.022;2023-02-14T17:22:18;1.83;;;0.63;;
75071;SDS011;63651;55.728;38.022;2023-02-14T17:27:19;1.30;;;0.57;;
75071;SDS011;63651;55.728;38.022;2023-02-14T17:32:21;1.75;;;0.80;;
75071;SDS011;63651;55.728;38.022;2023-02-14T17:37:22;2.20;;;0.45;;
75071;SDS011;63651;55.728;38.022;2023-02-14T17:42:23;2.60;;;0.68;;
75071;SDS011;63651;55.728;38.022;2023-02-14T17:47:24;1.20;;;0.82;;
75071;SDS011;63651;55.728;38.022;2023-02-14T17:52:25;2.67;;;0.82;;
75071;SDS011;63651;55.728;38.022;2023-02-14T17:57:29;1.42;;;0.90;;
75071;SDS011;63651;55.728;38.022;2023-02-14T18:02:30;1.80;;;0.68;;
75071;SDS011;63651;55.728;38.022;2023-02-14T18:07:31;1.48;;;0.47;;
75071;SDS011;63651;55.728;38.022;2023-02-14T18:12:33;1.42;;;0.50;;
75071;SDS011;63651;55.728;38.022;2023-02-14T18:17:34;1.58;;;0.52;;
75071;SDS011;63651;55.728;38.022;2023-02-14T18:22:35;1.88;;;0.63;;
75071;SDS011;63651;55.728;38.022;2023-02-14T18:27:36;1.20;;;0.47;;
75071;SDS011;63651;55.728;38.022;2023-02-14T18:32:38;1.48;;;0.60;;
75071;SDS011;63651;55.728;38.022;2023-02-14T18:37:40;1.23;;;0.50;;
75071;SDS011;63651;55.728;38.022;2023-02-14T18:42:41;1.13;;;0.45;;
75071;SDS011;63651;55.728;38.022;2023-02-14T18:47:42;1.00;;;0.55;;
75071;SDS011;63651;55.728;38.022;2023-02-14T18:52:43;1.55;;;0.55;;
75071;SDS011;63651;55.728;38.022;2023-02-14T18:57:44;1.48;;;0.65;;
75071;SDS011;63651;55.728;38.022;2023-02-14T19:02:46;1.15;;;0.40;;
75071;SDS011;63651;55.728;38.022;2023-02-14T19:07:52;1.30;;;0.55;;
75071;SDS011;63651;55.728;38.022;2023-02-14T19:12:54;1.10;;;0.70;;
75071;SDS011;63651;55.728;38.022;2023-02-14T19:17:55;1.55;;;0.52;;
75071;SDS011;63651;55.728;38.022;2023-02-14T19:22:56;1.67;;;0.70;;
75071;SDS011;63651;55.728;38.022;2023-02-14T19:27:57;1.40;;;0.85;;
75071;SDS011;63651;55.728;38.022;2023-02-14T19:32:58;2.47;;;1.10;;
75071;SDS011;63651;55.728;38.022;2023-02-14T19:37:59;1.70;;;1.23;;
75071;SDS011;63651;55.728;38.022;2023-02-14T19:43:03;2.95;;;1.42;;
75071;SDS011;63651;55.728;38.022;2023-02-14T19:48:04;1.70;;;1.00;;
75071;SDS011;63651;55.728;38.022;2023-02-14T19:53:05;1.95;;;0.90;;
75071;SDS011;63651;55.728;38.022;2023-02-14T19:58:06;1.58;;;0.55;;
75071;SDS011;63651;55.728;38.022;2023-02-14T20:03:07;1.17;;;0.80;;
75071;SDS011;63651;55.728;38.022;2023-02-14T20:08:08;1.83;;;0.52;;
75071;SDS011;63651;55.728;38.022;2023-02-14T20:13:09;1.15;;;0.47;;
75071;SDS011;63651;55.728;38.022;2023-02-14T20:18:11;1.50;;;0.50;;
75071;SDS011;63651;55.728;38.022;2023-02-14T20:23:12;3.22;;;0.30;;
75071;SDS011;63651;55.728;38.022;2023-02-14T20:28:13;1.02;;;0.30;;
75071;SDS011;63651;55.728;38.022;2023-02-14T20:33:14;0.55;;;0.20;;
75071;SDS011;63651;55.728;38.022;2023-02-14T20:38:15;1.40;;;0.47;;
75071;SDS011;63651;55.728;38.022;2023-02-14T20:43:16;1.10;;;0.20;;
75071;SDS011;63651;55.728;38.022;2023-02-14T20:48:17;1.50;;;0.32;;
75071;SDS011;63651;55.728;38.022;2023-02-14T20:53:18;1.67;;;0.43;;
75071;SDS011;63651;55.728;38.022;2023-02-14T20:58:20;1.98;;;0.50;;
75071;SDS011;63651;55.728;38.022;2023-02-14T21:03:21;1.20;;;0.32;;
75071;SDS011;63651;55.728;38.022;2023-02-14T21:08:23;1.33;;;0.32;;
75071;SDS011;63651;55.728;38.022;2023-02-14T21:13:24;1.15;;;0.30;;
75071;SDS011;63651;55.728;38.022;2023-02-14T21:18:25;1.40;;;0.40;;
75071;SDS011;63651;55.728;38.022;2023-02-14T21:23:26;0.50;;;0.20;;
75071;SDS011;63651;55.728;38.022;2023-02-14T21:28:28;1.02;;;0.30;;
75071;SDS011;63651;55.728;38.022;2023-02-14T21:33:29;0.80;;;0.28;;
75071;SDS011;63651;55.728;38.022;2023-02-14T21:38:33;2.03;;;0.50;;
75071;SDS011;63651;55.728;38.022;2023-02-14T21:43:36;1.20;;;0.40;;
75071;SDS011;63651;55.728;38.022;2023-02-14T21:48:39;0.90;;;0.10;;
75071;SDS011;63651;55.728;38.022;2023-02-14T21:53:59;1.48;;;0.40;;
75071;SDS011;63651;55.728;38.022;2023-02-14T21:59:00;1.63;;;0.20;;
75071;SDS011;63651;55.728;38.022;2023-02-14T22:04:03;1.27;;;0.20;;
75071;SDS011;63651;55.728;38.022;2023-02-14T22:09:08;0.60;;;0.10;;
75071;SDS011;63651;55.728;38.022;2023-02-14T22:14:10;1.55;;;0.32;;
75071;SDS011;63651;55.728;38.022;2023-02-14T22:19:12;1.48;;;0.32;;
75071;SDS011;63651;55.728;38.022;2023-02-14T22:24:15;2.58;;;0.30;;
75071;SDS011;63651;55.728;38.022;2023-02-14T22:29:16;1.30;;;0.30;;
75071;SDS011;63651;55.728;38.022;2023-02-14T22:34:17;1.80;;;0.45;;
75071;SDS011;63651;55.728;38.022;2023-02-14T22:39:19;1.15;;;0.40;;
75071;SDS011;63651;55.728;38.022;2023-02-14T22:44:21;0.80;;;0.20;;
75071;SDS011;63651;55.728;38.022;2023-02-14T22:49:22;1.25;;;0.30;;
75071;SDS011;63651;55.728;38.022;2023-02-14T22:54:23;1.00;;;0.20;;
75071;SDS011;63651;55.728;38.022;2023-02-14T22:59:25;1.25;;;0.17;;
75071;SDS011;63651;55.728;38.022;2023-02-14T23:04:31;1.63;;;0.40;;
75071;SDS011;63651;55.728;38.022;2023-02-14T23:09:32;1.63;;;0.20;;
75071;SDS011;63651;55.728;38.022;2023-02-14T23:14:33;1.83;;;0.30;;
75071;SDS011;63651;55.728;38.022;2023-02-14T23:19:53;1.20;;;0.50;;
75071;SDS011;63651;55.728;38.022;2023-02-14T23:25:13;1.52;;;0.30;;
75071;SDS011;63651;55.728;38.022;2023-02-14T23:30:15;0.77;;;0.35;;
75071;SDS011;63651;55.728;38.022;2023-02-14T23:35:17;1.23;;;0.30;;
75071;SDS011;63651;55.728;38.022;2023-02-14T23:40:19;1.08;;;0.32;;
75071;SDS011;63651;55.728;38.022;2023-02-14T23:45:20;0.77;;;0.35;;
75071;SDS011;63651;55.728;38.022;2023-02-14T23:50:37;2.92;;;0.63;;
75071;SDS011;63651;55.728;38.022;2023-02-14T23:55:38;1.52;;;0.32;;
